sensor_id;sensor_type;location;lat;lon;timestamp;P1;durP1;ratioP1;P2;durP2;ratioP2
24729;SDS011;12832;52.392;13.066;2023-04-25T00:01:22;0.22;;;0.22;;
24729;SDS011;12832;52.392;13.066;2023-04-25T00:03:48;0.20;;;0.20;;
24729;SDS011;12832;52.392;13.066;2023-04-25T00:06:15;0.30;;;0.30;;
24729;SDS011;12832;52.392;13.066;2023-04-25T00:08:43;0.40;;;0.40;;
24729;SDS011;12832;52.392;13.066;2023-04-25T00:11:09;0.40;;;0.40;;
24729;SDS011;12832;52.392;13.066;2023-04-25T00:13:35;1.52;;;0.40;;
24729;SDS011;12832;52.392;13.066;2023-04-25T00:16:02;0.55;;;0.30;;
24729;SDS011;12832;52.392;13.066;2023-04-25T00:18:28;0.40;;;0.32;;
24729;SDS011;12832;52.392;13.066;2023-04-25T00:20:54;0.22;;;0.22;;
24729;SDS011;12832;52.392;13.066;2023-04-25T00:23:21;0.20;;;0.20;;
24729;SDS011;12832;52.392;13.066;2023-04-25T00:25:47;0.20;;;0.20;;
24729;SDS011;12832;52.392;13.066;2023-04-25T00:28:15;0.32;;;0.32;;
24729;SDS011;12832;52.392;13.066;2023-04-25T00:30:41;0.35;;;0.35;;
24729;SDS011;12832;52.392;13.066;2023-04-25T00:33:08;0.30;;;0.30;;
24729;SDS011;12832;52.392;13.066;2023-04-25T00:35:35;0.40;;;0.30;;
24729;SDS011;12832;52.392;13.066;2023-04-25T00:38:01;0.50;;;0.40;;
24729;SDS011;12832;52.392;13.066;2023-04-25T00:40:28;0.30;;;0.30;;
24729;SDS011;12832;52.392;13.066;2023-04-25T00:42:54;0.40;;;0.40;;
24729;SDS011;12832;52.392;13.066;2023-04-25T00:45:20;0.55;;;0.30;;
24729;SDS011;12832;52.392;13.066;2023-04-25T00:47:46;0.30;;;0.30;;
24729;SDS011;12832;52.392;13.066;2023-04-25T00:50:13;1.05;;;0.30;;
24729;SDS011;12832;52.392;13.066;2023-04-25T00:52:40;0.25;;;0.25;;
24729;SDS011;12832;52.392;13.066;2023-04-25T00:55:08;0.20;;;0.20;;
24729;SDS011;12832;52.392;13.066;2023-04-25T00:57:36;0.32;;;0.22;;
24729;SDS011;12832;52.392;13.066;2023-04-25T01:00:03;0.35;;;0.35;;
24729;SDS011;12832;52.392;13.066;2023-04-25T01:02:31;0.30;;;0.30;;
24729;SDS011;12832;52.392;13.066;2023-04-25T01:04:59;0.30;;;0.20;;
24729;SDS011;12832;52.392;13.066;2023-04-25T01:07:25;0.30;;;0.30;;
24729;SDS011;12832;52.392;13.066;2023-04-25T01:09:52;0.25;;;0.25;;
24729;SDS011;12832;52.392;13.066;2023-04-25T01:12:18;0.35;;;0.30;;
24729;SDS011;12832;52.392;13.066;2023-04-25T01:14:44;0.10;;;0.10;;
24729;SDS011;12832;52.392;13.066;2023-04-25T01:17:11;0.20;;;0.20;;
24729;SDS011;12832;52.392;13.066;2023-04-25T01:19:37;0.30;;;0.30;;
24729;SDS011;12832;52.392;13.066;2023-04-25T01:22:04;0.30;;;0.20;;
24729;SDS011;12832;52.392;13.066;2023-04-25T01:24:31;0.40;;;0.40;;
24729;SDS011;12832;52.392;13.066;2023-04-25T01:26:58;0.30;;;0.30;;
24729;SDS011;12832;52.392;13.066;2023-04-25T01:29:27;0.30;;;0.30;;
24729;SDS011;12832;52.392;13.066;2023-04-25T01:31:53;0.20;;;0.20;;
24729;SDS011;12832;52.392;13.066;2023-04-25T01:34:20;0.30;;;0.30;;
24729;SDS011;12832;52.392;13.066;2023-04-25T01:36:49;0.20;;;0.20;;
24729;SDS011;12832;52.392;13.066;2023-04-25T01:39:19;0.40;;;0.32;;
24729;SDS011;12832;52.392;13.066;2023-04-25T01:41:46;0.20;;;0.20;;
24729;SDS011;12832;52.392;13.066;2023-04-25T01:44:13;0.32;;;0.32;;
24729;SDS011;12832;52.392;13.066;2023-04-25T01:46:39;0.30;;;0.30;;
24729;SDS011;12832;52.392;13.066;2023-04-25T01:49:06;0.30;;;0.30;;
24729;SDS011;12832;52.392;13.066;2023-04-25T01:51:33;0.32;;;0.32;;
24729;SDS011;12832;52.392;13.066;2023-04-25T01:53:59;0.30;;;0.30;;
24729;SDS011;12832;52.392;13.066;2023-04-25T01:56:29;0.30;;;0.30;;
24729;SDS011;12832;52.392;13.066;2023-04-25T01:58:56;0.22;;;0.20;;
24729;SDS011;12832;52.392;13.066;2023-04-25T02:01:23;0.20;;;0.20;;
24729;SDS011;12832;52.392;13.066;2023-04-25T02:03:49;0.55;;;0.30;;
24729;SDS011;12832;52.392;13.066;2023-04-25T02:06:16;0.38;;;0.28;;
24729;SDS011;12832;52.392;13.066;2023-04-25T02:08:42;0.40;;;0.30;;
24729;SDS011;12832;52.392;13.066;2023-04-25T02:11:08;0.30;;;0.30;;
24729;SDS011;12832;52.392;13.066;2023-04-25T02:13:34;0.50;;;0.40;;
24729;SDS011;12832;52.392;13.066;2023-04-25T02:16:01;0.40;;;0.38;;
24729;SDS011;12832;52.392;13.066;2023-04-25T02:18:27;0.30;;;0.20;;
24729;SDS011;12832;52.392;13.066;2023-04-25T02:20:53;0.20;;;0.20;;
24729;SDS011;12832;52.392;13.066;2023-04-25T02:23:20;0.20;;;0.20;;
24729;SDS011;12832;52.392;13.066;2023-04-25T02:25:46;0.32;;;0.30;;
24729;SDS011;12832;52.392;13.066;2023-04-25T02:28:12;0.20;;;0.20;;
24729;SDS011;12832;52.392;13.066;2023-04-25T02:30:38;0.20;;;0.20;;
24729;SDS011;12832;52.392;13.066;2023-04-25T02:33:04;0.20;;;0.20;;
24729;SDS011;12832;52.392;13.066;2023-04-25T02:35:30;0.20;;;0.20;;
24729;SDS011;12832;52.392;13.066;2023-04-25T02:37:56;0.20;;;0.15;;
24729;SDS011;12832;52.392;13.066;2023-04-25T02:40:23;0.28;;;0.28;;
24729;SDS011;12832;52.392;13.066;2023-04-25T02:42:49;0.22;;;0.22;;
24729;SDS011;12832;52.392;13.066;2023-04-25T02:45:15;0.30;;;0.20;;
24729;SDS011;12832;52.392;13.066;2023-04-25T02:47:41;0.20;;;0.20;;
24729;SDS011;12832;52.392;13.066;2023-04-25T02:50:07;0.20;;;0.20;;
24729;SDS011;12832;52.392;13.066;2023-04-25T02:52:34;0.15;;;0.15;;
24729;SDS011;12832;52.392;13.066;2023-04-25T02:55:00;0.20;;;0.20;;
24729;SDS011;12832;52.392;13.066;2023-04-25T02:57:26;0.10;;;0.10;;
24729;SDS011;12832;52.392;13.066;2023-04-25T02:59:53;0.20;;;0.20;;
24729;SDS011;12832;52.392;13.066;2023-04-25T03:02:19;0.20;;;0.20;;
24729;SDS011;12832;52.392;13.066;2023-04-25T03:04:45;0.40;;;0.30;;
24729;SDS011;12832;52.392;13.066;2023-04-25T03:07:11;0.38;;;0.20;;
24729;SDS011;12832;52.392;13.066;2023-04-25T03:09:37;0.50;;;0.30;;
24729;SDS011;12832;52.392;13.066;2023-04-25T03:12:04;0.15;;;0.15;;
24729;SDS011;12832;52.392;13.066;2023-04-25T03:14:30;0.20;;;0.20;;
24729;SDS011;12832;52.392;13.066;2023-04-25T03:16:56;0.20;;;0.20;;
24729;SDS011;12832;52.392;13.066;2023-04-25T03:19:22;0.20;;;0.20;;
24729;SDS011;12832;52.392;13.066;2023-04-25T03:21:48;0.30;;;0.22;;
24729;SDS011;12832;52.392;13.066;2023-04-25T03:24:14;0.28;;;0.25;;
24729;SDS011;12832;52.392;13.066;2023-04-25T03:26:40;0.20;;;0.20;;
24729;SDS011;12832;52.392;13.066;2023-04-25T03:29:07;0.28;;;0.20;;
24729;SDS011;12832;52.392;13.066;2023-04-25T03:31:33;0.20;;;0.20;;
24729;SDS011;12832;52.392;13.066;2023-04-25T03:34:00;0.32;;;0.32;;
24729;SDS011;12832;52.392;13.066;2023-04-25T03:36:26;0.40;;;0.30;;
24729;SDS011;12832;52.392;13.066;2023-04-25T03:38:52;0.20;;;0.20;;
24729;SDS011;12832;52.392;13.066;2023-04-25T03:41:18;0.30;;;0.30;;
24729;SDS011;12832;52.392;13.066;2023-04-25T03:43:44;0.20;;;0.20;;
24729;SDS011;12832;52.392;13.066;2023-04-25T03:46:10;0.20;;;0.20;;
24729;SDS011;12832;52.392;13.066;2023-04-25T03:48:36;0.17;;;0.17;;
24729;SDS011;12832;52.392;13.066;2023-04-25T03:51:02;0.20;;;0.20;;
24729;SDS011;12832;52.392;13.066;2023-04-25T03:53:29;0.30;;;0.28;;
24729;SDS011;12832;52.392;13.066;2023-04-25T03:55:55;0.30;;;0.30;;
24729;SDS011;12832;52.392;13.066;2023-04-25T03:58:21;0.20;;;0.20;;
24729;SDS011;12832;52.392;13.066;2023-04-25T04:00:49;0.20;;;0.20;;
24729;SDS011;12832;52.392;13.066;2023-04-25T04:03:15;0.22;;;0.20;;
24729;SDS011;12832;52.392;13.066;2023-04-25T04:05:41;0.30;;;0.30;;
24729;SDS011;12832;52.392;13.066;2023-04-25T04:08:07;0.43;;;0.20;;
24729;SDS011;12832;52.392;13.066;2023-04-25T04:10:33;0.20;;;0.20;;
24729;SDS011;12832;52.392;13.066;2023-04-25T04:13:00;0.30;;;0.30;;
24729;SDS011;12832;52.392;13.066;2023-04-25T04:15:26;0.22;;;0.20;;
24729;SDS011;12832;52.392;13.066;2023-04-25T04:17:52;0.20;;;0.20;;
24729;SDS011;12832;52.392;13.066;2023-04-25T04:20:19;0.20;;;0.20;;
24729;SDS011;12832;52.392;13.066;2023-04-25T04:22:46;0.40;;;0.30;;
24729;SDS011;12832;52.392;13.066;2023-04-25T04:25:12;0.30;;;0.30;;
24729;SDS011;12832;52.392;13.066;2023-04-25T04:27:38;0.52;;;0.43;;
24729;SDS011;12832;52.392;13.066;2023-04-25T04:30:06;0.22;;;0.20;;
24729;SDS011;12832;52.392;13.066;2023-04-25T04:32:32;1.75;;;0.20;;
24729;SDS011;12832;52.392;13.066;2023-04-25T04:35:00;0.20;;;0.20;;
24729;SDS011;12832;52.392;13.066;2023-04-25T04:37:26;0.35;;;0.20;;
24729;SDS011;12832;52.392;13.066;2023-04-25T04:39:52;0.28;;;0.25;;
24729;SDS011;12832;52.392;13.066;2023-04-25T04:42:18;0.22;;;0.22;;
24729;SDS011;12832;52.392;13.066;2023-04-25T04:44:44;0.10;;;0.10;;
24729;SDS011;12832;52.392;13.066;2023-04-25T04:47:10;0.50;;;0.30;;
24729;SDS011;12832;52.392;13.066;2023-04-25T04:49:38;0.85;;;0.20;;
24729;SDS011;12832;52.392;13.066;2023-04-25T04:52:04;0.30;;;0.30;;
24729;SDS011;12832;52.392;13.066;2023-04-25T04:54:30;0.30;;;0.30;;
24729;SDS011;12832;52.392;13.066;2023-04-25T04:56:56;0.30;;;0.20;;
24729;SDS011;12832;52.392;13.066;2023-04-25T04:59:22;0.40;;;0.30;;
24729;SDS011;12832;52.392;13.066;2023-04-25T05:01:48;0.22;;;0.22;;
24729;SDS011;12832;52.392;13.066;2023-04-25T05:04:15;0.20;;;0.20;;
24729;SDS011;12832;52.392;13.066;2023-04-25T05:06:41;0.20;;;0.20;;
24729;SDS011;12832;52.392;13.066;2023-04-25T05:09:07;1.38;;;0.60;;
24729;SDS011;12832;52.392;13.066;2023-04-25T05:11:33;1.15;;;0.50;;
24729;SDS011;12832;52.392;13.066;2023-04-25T05:13:59;2.35;;;0.50;;
24729;SDS011;12832;52.392;13.066;2023-04-25T05:16:25;0.65;;;0.50;;
24729;SDS011;12832;52.392;13.066;2023-04-25T05:18:52;0.52;;;0.50;;
24729;SDS011;12832;52.392;13.066;2023-04-25T05:21:18;2.50;;;0.75;;
24729;SDS011;12832;52.392;13.066;2023-04-25T05:23:44;1.58;;;0.63;;
24729;SDS011;12832;52.392;13.066;2023-04-25T05:26:10;1.73;;;0.93;;
24729;SDS011;12832;52.392;13.066;2023-04-25T05:28:42;1.58;;;0.57;;
24729;SDS011;12832;52.392;13.066;2023-04-25T05:31:11;1.25;;;0.68;;
24729;SDS011;12832;52.392;13.066;2023-04-25T05:33:38;1.38;;;0.80;;
24729;SDS011;12832;52.392;13.066;2023-04-25T05:36:05;1.88;;;0.75;;
24729;SDS011;12832;52.392;13.066;2023-04-25T05:38:32;2.50;;;1.00;;
24729;SDS011;12832;52.392;13.066;2023-04-25T05:41:00;2.05;;;1.05;;
24729;SDS011;12832;52.392;13.066;2023-04-25T05:43:26;0.98;;;0.70;;
24729;SDS011;12832;52.392;13.066;2023-04-25T05:45:52;1.98;;;0.95;;
24729;SDS011;12832;52.392;13.066;2023-04-25T05:48:19;4.05;;;1.50;;
24729;SDS011;12832;52.392;13.066;2023-04-25T05:50:45;1.80;;;0.90;;
24729;SDS011;12832;52.392;13.066;2023-04-25T05:53:11;4.00;;;1.30;;
24729;SDS011;12832;52.392;13.066;2023-04-25T05:55:37;1.45;;;0.90;;
24729;SDS011;12832;52.392;13.066;2023-04-25T05:58:04;2.25;;;1.10;;
24729;SDS011;12832;52.392;13.066;2023-04-25T06:00:32;2.47;;;1.08;;
24729;SDS011;12832;52.392;13.066;2023-04-25T06:02:59;2.00;;;1.20;;
24729;SDS011;12832;52.392;13.066;2023-04-25T06:05:25;1.80;;;0.90;;
24729;SDS011;12832;52.392;13.066;2023-04-25T06:07:51;1.83;;;1.15;;
24729;SDS011;12832;52.392;13.066;2023-04-25T06:10:17;1.90;;;1.20;;
24729;SDS011;12832;52.392;13.066;2023-04-25T06:12:44;2.13;;;1.15;;
24729;SDS011;12832;52.392;13.066;2023-04-25T06:15:10;2.58;;;1.05;;
24729;SDS011;12832;52.392;13.066;2023-04-25T06:17:52;1.52;;;1.13;;
24729;SDS011;12832;52.392;13.066;2023-04-25T06:20:18;1.73;;;0.90;;
24729;SDS011;12832;52.392;13.066;2023-04-25T06:22:50;3.75;;;1.15;;
24729;SDS011;12832;52.392;13.066;2023-04-25T06:25:17;1.60;;;0.80;;
24729;SDS011;12832;52.392;13.066;2023-04-25T06:27:43;2.38;;;1.27;;
24729;SDS011;12832;52.392;13.066;2023-04-25T06:30:09;2.33;;;1.20;;
24729;SDS011;12832;52.392;13.066;2023-04-25T06:32:38;2.65;;;1.40;;
24729;SDS011;12832;52.392;13.066;2023-04-25T06:35:04;1.92;;;1.35;;
24729;SDS011;12832;52.392;13.066;2023-04-25T06:37:31;4.03;;;1.33;;
24729;SDS011;12832;52.392;13.066;2023-04-25T06:39:57;2.75;;;1.48;;
24729;SDS011;12832;52.392;13.066;2023-04-25T06:42:24;2.80;;;1.38;;
24729;SDS011;12832;52.392;13.066;2023-04-25T06:44:50;3.10;;;1.40;;
24729;SDS011;12832;52.392;13.066;2023-04-25T06:47:16;2.25;;;1.20;;
24729;SDS011;12832;52.392;13.066;2023-04-25T06:49:44;3.78;;;1.38;;
24729;SDS011;12832;52.392;13.066;2023-04-25T06:52:10;2.58;;;1.05;;
24729;SDS011;12832;52.392;13.066;2023-04-25T06:54:36;3.35;;;1.40;;
24729;SDS011;12832;52.392;13.066;2023-04-25T06:57:02;2.28;;;1.10;;
24729;SDS011;12832;52.392;13.066;2023-04-25T06:59:28;3.03;;;1.10;;
24729;SDS011;12832;52.392;13.066;2023-04-25T07:01:54;2.30;;;1.30;;
24729;SDS011;12832;52.392;13.066;2023-04-25T07:04:20;3.85;;;0.90;;
24729;SDS011;12832;52.392;13.066;2023-04-25T07:06:47;2.50;;;1.10;;
24729;SDS011;12832;52.392;13.066;2023-04-25T07:09:13;1.73;;;1.08;;
24729;SDS011;12832;52.392;13.066;2023-04-25T07:11:40;2.15;;;1.25;;
24729;SDS011;12832;52.392;13.066;2023-04-25T07:14:06;1.90;;;1.10;;
24729;SDS011;12832;52.392;13.066;2023-04-25T07:16:32;2.28;;;1.20;;
24729;SDS011;12832;52.392;13.066;2023-04-25T07:18:58;1.73;;;1.05;;
24729;SDS011;12832;52.392;13.066;2023-04-25T07:21:25;1.98;;;0.95;;
24729;SDS011;12832;52.392;13.066;2023-04-25T07:23:51;2.55;;;1.10;;
24729;SDS011;12832;52.392;13.066;2023-04-25T07:26:17;1.75;;;1.02;;
24729;SDS011;12832;52.392;13.066;2023-04-25T07:28:44;3.05;;;1.25;;
24729;SDS011;12832;52.392;13.066;2023-04-25T07:31:10;2.28;;;1.02;;
24729;SDS011;12832;52.392;13.066;2023-04-25T07:33:36;2.85;;;1.30;;
24729;SDS011;12832;52.392;13.066;2023-04-25T07:36:02;2.10;;;1.02;;
24729;SDS011;12832;52.392;13.066;2023-04-25T07:38:28;2.42;;;0.95;;
24729;SDS011;12832;52.392;13.066;2023-04-25T07:40:54;2.85;;;1.23;;
24729;SDS011;12832;52.392;13.066;2023-04-25T07:43:20;2.10;;;1.20;;
24729;SDS011;12832;52.392;13.066;2023-04-25T07:45:46;2.75;;;1.15;;
24729;SDS011;12832;52.392;13.066;2023-04-25T07:48:19;3.10;;;1.48;;
24729;SDS011;12832;52.392;13.066;2023-04-25T07:50:45;1.95;;;1.17;;
24729;SDS011;12832;52.392;13.066;2023-04-25T07:53:11;3.33;;;1.20;;
24729;SDS011;12832;52.392;13.066;2023-04-25T07:55:37;4.03;;;1.27;;
24729;SDS011;12832;52.392;13.066;2023-04-25T07:58:06;3.40;;;1.30;;
24729;SDS011;12832;52.392;13.066;2023-04-25T08:00:33;2.13;;;1.10;;
24729;SDS011;12832;52.392;13.066;2023-04-25T08:02:59;3.38;;;1.50;;
24729;SDS011;12832;52.392;13.066;2023-04-25T08:05:26;2.70;;;1.33;;
24729;SDS011;12832;52.392;13.066;2023-04-25T08:07:53;3.13;;;1.58;;
24729;SDS011;12832;52.392;13.066;2023-04-25T08:10:20;2.53;;;1.35;;
24729;SDS011;12832;52.392;13.066;2023-04-25T08:12:48;2.97;;;1.48;;
24729;SDS011;12832;52.392;13.066;2023-04-25T08:15:15;2.30;;;1.30;;
24729;SDS011;12832;52.392;13.066;2023-04-25T08:17:41;2.60;;;1.23;;
24729;SDS011;12832;52.392;13.066;2023-04-25T08:20:09;2.03;;;1.00;;
24729;SDS011;12832;52.392;13.066;2023-04-25T08:22:36;2.33;;;1.27;;
24729;SDS011;12832;52.392;13.066;2023-04-25T08:25:02;4.05;;;1.38;;
24729;SDS011;12832;52.392;13.066;2023-04-25T08:27:29;5.13;;;1.67;;
24729;SDS011;12832;52.392;13.066;2023-04-25T08:29:56;6.07;;;1.20;;
24729;SDS011;12832;52.392;13.066;2023-04-25T08:32:23;1.48;;;0.95;;
24729;SDS011;12832;52.392;13.066;2023-04-25T08:34:50;3.38;;;1.73;;
24729;SDS011;12832;52.392;13.066;2023-04-25T08:37:19;2.72;;;1.20;;
24729;SDS011;12832;52.392;13.066;2023-04-25T08:39:47;2.28;;;0.98;;
24729;SDS011;12832;52.392;13.066;2023-04-25T08:42:14;4.32;;;1.10;;
24729;SDS011;12832;52.392;13.066;2023-04-25T08:44:41;2.80;;;1.48;;
24729;SDS011;12832;52.392;13.066;2023-04-25T08:47:08;2.42;;;1.10;;
24729;SDS011;12832;52.392;13.066;2023-04-25T08:49:34;3.05;;;0.80;;
24729;SDS011;12832;52.392;13.066;2023-04-25T08:52:02;4.80;;;1.40;;
24729;SDS011;12832;52.392;13.066;2023-04-25T08:54:32;2.45;;;1.02;;
24729;SDS011;12832;52.392;13.066;2023-04-25T08:57:01;3.08;;;1.38;;
24729;SDS011;12832;52.392;13.066;2023-04-25T08:59:29;2.75;;;1.20;;
24729;SDS011;12832;52.392;13.066;2023-04-25T09:01:57;3.22;;;1.52;;
24729;SDS011;12832;52.392;13.066;2023-04-25T09:04:23;4.85;;;1.45;;
24729;SDS011;12832;52.392;13.066;2023-04-25T09:06:50;2.10;;;0.98;;
24729;SDS011;12832;52.392;13.066;2023-04-25T09:09:16;5.13;;;1.63;;
24729;SDS011;12832;52.392;13.066;2023-04-25T09:11:42;2.78;;;1.27;;
24729;SDS011;12832;52.392;13.066;2023-04-25T09:14:19;4.47;;;1.33;;
24729;SDS011;12832;52.392;13.066;2023-04-25T09:19:22;2.72;;;1.25;;
24729;SDS011;12832;52.392;13.066;2023-04-25T09:22:05;2.40;;;1.30;;
24729;SDS011;12832;52.392;13.066;2023-04-25T09:29:33;3.58;;;1.25;;
24729;SDS011;12832;52.392;13.066;2023-04-25T09:32:44;3.13;;;1.23;;
24729;SDS011;12832;52.392;13.066;2023-04-25T09:34:55;3.10;;;1.10;;
24729;SDS011;12832;52.392;13.066;2023-04-25T09:37:29;2.33;;;1.13;;
24729;SDS011;12832;52.392;13.066;2023-04-25T09:39:57;3.20;;;1.27;;
24729;SDS011;12832;52.392;13.066;2023-04-25T09:42:26;4.85;;;1.95;;
24729;SDS011;12832;52.392;13.066;2023-04-25T09:44:55;4.65;;;1.58;;
24729;SDS011;12832;52.392;13.066;2023-04-25T09:47:25;4.95;;;1.67;;
24729;SDS011;12832;52.392;13.066;2023-04-25T09:49:52;3.08;;;1.55;;
24729;SDS011;12832;52.392;13.066;2023-04-25T09:52:19;4.18;;;1.77;;
24729;SDS011;12832;52.392;13.066;2023-04-25T09:54:49;2.53;;;1.40;;
24729;SDS011;12832;52.392;13.066;2023-04-25T09:57:18;2.60;;;1.27;;
24729;SDS011;12832;52.392;13.066;2023-04-25T10:02:13;3.92;;;1.38;;
24729;SDS011;12832;52.392;13.066;2023-04-25T10:04:42;4.07;;;1.60;;
24729;SDS011;12832;52.392;13.066;2023-04-25T10:07:12;2.80;;;1.48;;
24729;SDS011;12832;52.392;13.066;2023-04-25T10:09:39;5.00;;;1.58;;
24729;SDS011;12832;52.392;13.066;2023-04-25T10:12:06;4.20;;;1.40;;
24729;SDS011;12832;52.392;13.066;2023-04-25T10:14:34;3.63;;;1.63;;
24729;SDS011;12832;52.392;13.066;2023-04-25T10:17:00;5.43;;;1.70;;
24729;SDS011;12832;52.392;13.066;2023-04-25T10:19:27;3.75;;;1.40;;
24729;SDS011;12832;52.392;13.066;2023-04-25T10:22:14;5.53;;;1.60;;
24729;SDS011;12832;52.392;13.066;2023-04-25T10:24:46;9.05;;;1.70;;
24729;SDS011;12832;52.392;13.066;2023-04-25T10:27:12;4.38;;;1.45;;
24729;SDS011;12832;52.392;13.066;2023-04-25T10:29:39;3.13;;;1.38;;
24729;SDS011;12832;52.392;13.066;2023-04-25T10:32:08;5.55;;;1.85;;
24729;SDS011;12832;52.392;13.066;2023-04-25T10:34:38;4.20;;;2.00;;
24729;SDS011;12832;52.392;13.066;2023-04-25T10:37:12;3.95;;;1.85;;
24729;SDS011;12832;52.392;13.066;2023-04-25T10:39:39;2.65;;;1.35;;
24729;SDS011;12832;52.392;13.066;2023-04-25T10:42:06;4.55;;;1.23;;
24729;SDS011;12832;52.392;13.066;2023-04-25T10:44:33;4.07;;;1.60;;
24729;SDS011;12832;52.392;13.066;2023-04-25T10:47:00;3.58;;;1.38;;
24729;SDS011;12832;52.392;13.066;2023-04-25T10:52:15;2.15;;;1.27;;
24729;SDS011;12832;52.392;13.066;2023-04-25T10:54:46;2.60;;;1.30;;
24729;SDS011;12832;52.392;13.066;2023-04-25T10:57:26;2.75;;;1.10;;
24729;SDS011;12832;52.392;13.066;2023-04-25T10:59:58;2.50;;;1.40;;
24729;SDS011;12832;52.392;13.066;2023-04-25T11:02:32;5.05;;;1.33;;
24729;SDS011;12832;52.392;13.066;2023-04-25T11:05:03;4.22;;;1.80;;
24729;SDS011;12832;52.392;13.066;2023-04-25T11:07:49;2.70;;;1.40;;
24729;SDS011;12832;52.392;13.066;2023-04-25T11:10:33;3.45;;;1.17;;
24729;SDS011;12832;52.392;13.066;2023-04-25T11:13:03;2.20;;;0.98;;
24729;SDS011;12832;52.392;13.066;2023-04-25T11:15:30;3.03;;;1.30;;
24729;SDS011;12832;52.392;13.066;2023-04-25T11:17:56;3.60;;;1.30;;
24729;SDS011;12832;52.392;13.066;2023-04-25T11:20:24;4.25;;;1.33;;
24729;SDS011;12832;52.392;13.066;2023-04-25T11:22:51;2.97;;;1.70;;
24729;SDS011;12832;52.392;13.066;2023-04-25T11:25:18;2.90;;;1.63;;
24729;SDS011;12832;52.392;13.066;2023-04-25T11:30:22;3.67;;;1.52;;
24729;SDS011;12832;52.392;13.066;2023-04-25T11:32:50;3.60;;;1.50;;
24729;SDS011;12832;52.392;13.066;2023-04-25T11:35:18;3.22;;;1.48;;
24729;SDS011;12832;52.392;13.066;2023-04-25T11:37:45;3.10;;;1.30;;
24729;SDS011;12832;52.392;13.066;2023-04-25T11:40:12;3.03;;;1.63;;
24729;SDS011;12832;52.392;13.066;2023-04-25T11:42:38;3.15;;;1.35;;
24729;SDS011;12832;52.392;13.066;2023-04-25T11:45:05;2.72;;;1.27;;
24729;SDS011;12832;52.392;13.066;2023-04-25T11:47:32;2.75;;;1.30;;
24729;SDS011;12832;52.392;13.066;2023-04-25T11:49:59;3.70;;;1.33;;
24729;SDS011;12832;52.392;13.066;2023-04-25T11:52:35;3.55;;;1.40;;
24729;SDS011;12832;52.392;13.066;2023-04-25T11:55:18;3.80;;;1.42;;
24729;SDS011;12832;52.392;13.066;2023-04-25T11:57:48;4.25;;;1.60;;
24729;SDS011;12832;52.392;13.066;2023-04-25T12:00:21;2.58;;;1.50;;
24729;SDS011;12832;52.392;13.066;2023-04-25T12:02:51;4.10;;;1.50;;
24729;SDS011;12832;52.392;13.066;2023-04-25T12:05:19;2.70;;;1.10;;
24729;SDS011;12832;52.392;13.066;2023-04-25T12:07:57;1.88;;;1.15;;
24729;SDS011;12832;52.392;13.066;2023-04-25T12:10:24;4.05;;;1.27;;
24729;SDS011;12832;52.392;13.066;2023-04-25T12:12:51;4.10;;;1.30;;
24729;SDS011;12832;52.392;13.066;2023-04-25T12:15:18;2.80;;;1.45;;
24729;SDS011;12832;52.392;13.066;2023-04-25T12:17:49;3.58;;;1.60;;
24729;SDS011;12832;52.392;13.066;2023-04-25T12:20:20;2.78;;;1.55;;
24729;SDS011;12832;52.392;13.066;2023-04-25T12:22:50;4.32;;;1.15;;
24729;SDS011;12832;52.392;13.066;2023-04-25T12:28:09;3.47;;;1.40;;
24729;SDS011;12832;52.392;13.066;2023-04-25T12:31:02;2.75;;;1.23;;
24729;SDS011;12832;52.392;13.066;2023-04-25T12:33:32;4.60;;;1.50;;
24729;SDS011;12832;52.392;13.066;2023-04-25T12:36:00;2.50;;;1.00;;
24729;SDS011;12832;52.392;13.066;2023-04-25T12:38:37;4.18;;;1.25;;
24729;SDS011;12832;52.392;13.066;2023-04-25T12:41:05;3.10;;;1.08;;
24729;SDS011;12832;52.392;13.066;2023-04-25T12:43:32;2.15;;;1.00;;
24729;SDS011;12832;52.392;13.066;2023-04-25T12:45:58;1.98;;;1.10;;
24729;SDS011;12832;52.392;13.066;2023-04-25T12:48:25;3.65;;;1.20;;
24729;SDS011;12832;52.392;13.066;2023-04-25T12:50:51;3.92;;;1.38;;
24729;SDS011;12832;52.392;13.066;2023-04-25T12:53:21;2.97;;;1.42;;
24729;SDS011;12832;52.392;13.066;2023-04-25T12:55:50;2.08;;;1.05;;
24729;SDS011;12832;52.392;13.066;2023-04-25T12:58:17;2.78;;;1.13;;
24729;SDS011;12832;52.392;13.066;2023-04-25T13:00:44;4.43;;;1.42;;
24729;SDS011;12832;52.392;13.066;2023-04-25T13:03:11;2.45;;;0.98;;
24729;SDS011;12832;52.392;13.066;2023-04-25T13:05:38;4.43;;;1.30;;
24729;SDS011;12832;52.392;13.066;2023-04-25T13:08:05;2.13;;;1.40;;
24729;SDS011;12832;52.392;13.066;2023-04-25T13:10:31;4.25;;;1.48;;
24729;SDS011;12832;52.392;13.066;2023-04-25T13:12:59;1.80;;;1.10;;
24729;SDS011;12832;52.392;13.066;2023-04-25T13:15:26;3.17;;;1.33;;
24729;SDS011;12832;52.392;13.066;2023-04-25T13:17:53;3.80;;;1.40;;
24729;SDS011;12832;52.392;13.066;2023-04-25T13:20:19;3.78;;;1.15;;
24729;SDS011;12832;52.392;13.066;2023-04-25T13:22:47;3.13;;;1.38;;
24729;SDS011;12832;52.392;13.066;2023-04-25T13:25:13;2.10;;;1.20;;
24729;SDS011;12832;52.392;13.066;2023-04-25T13:27:40;1.38;;;0.98;;
24729;SDS011;12832;52.392;13.066;2023-04-25T13:30:07;2.10;;;1.10;;
24729;SDS011;12832;52.392;13.066;2023-04-25T13:32:34;1.40;;;0.90;;
24729;SDS011;12832;52.392;13.066;2023-04-25T13:35:02;3.05;;;1.60;;
24729;SDS011;12832;52.392;13.066;2023-04-25T13:37:36;3.33;;;1.45;;
24729;SDS011;12832;52.392;13.066;2023-04-25T13:40:03;2.42;;;1.15;;
24729;SDS011;12832;52.392;13.066;2023-04-25T13:42:31;2.28;;;1.27;;
24729;SDS011;12832;52.392;13.066;2023-04-25T13:44:58;4.13;;;1.50;;
24729;SDS011;12832;52.392;13.066;2023-04-25T13:47:25;2.83;;;1.40;;
24729;SDS011;12832;52.392;13.066;2023-04-25T13:49:51;2.20;;;1.10;;
24729;SDS011;12832;52.392;13.066;2023-04-25T13:52:18;2.67;;;1.30;;
24729;SDS011;12832;52.392;13.066;2023-04-25T13:54:44;4.50;;;1.25;;
24729;SDS011;12832;52.392;13.066;2023-04-25T13:57:10;2.90;;;1.23;;
24729;SDS011;12832;52.392;13.066;2023-04-25T13:59:37;2.70;;;1.40;;
24729;SDS011;12832;52.392;13.066;2023-04-25T14:02:03;2.72;;;1.25;;
24729;SDS011;12832;52.392;13.066;2023-04-25T14:04:30;3.38;;;1.33;;
24729;SDS011;12832;52.392;13.066;2023-04-25T14:06:56;2.33;;;1.23;;
24729;SDS011;12832;52.392;13.066;2023-04-25T14:09:22;3.85;;;1.15;;
24729;SDS011;12832;52.392;13.066;2023-04-25T14:11:51;3.33;;;1.10;;
24729;SDS011;12832;52.392;13.066;2023-04-25T14:14:21;2.67;;;1.40;;
24729;SDS011;12832;52.392;13.066;2023-04-25T14:16:48;2.47;;;1.20;;
24729;SDS011;12832;52.392;13.066;2023-04-25T14:19:16;2.35;;;1.30;;
24729;SDS011;12832;52.392;13.066;2023-04-25T14:21:45;2.05;;;1.20;;
24729;SDS011;12832;52.392;13.066;2023-04-25T14:24:12;2.17;;;0.90;;
24729;SDS011;12832;52.392;13.066;2023-04-25T14:26:39;2.08;;;1.08;;
24729;SDS011;12832;52.392;13.066;2023-04-25T14:29:06;1.77;;;1.15;;
24729;SDS011;12832;52.392;13.066;2023-04-25T14:31:34;2.55;;;1.17;;
24729;SDS011;12832;52.392;13.066;2023-04-25T14:34:01;2.38;;;1.20;;
24729;SDS011;12832;52.392;13.066;2023-04-25T14:36:28;2.55;;;1.17;;
24729;SDS011;12832;52.392;13.066;2023-04-25T14:38:54;1.98;;;1.17;;
24729;SDS011;12832;52.392;13.066;2023-04-25T14:41:20;2.20;;;1.17;;
24729;SDS011;12832;52.392;13.066;2023-04-25T14:43:47;2.55;;;1.00;;
24729;SDS011;12832;52.392;13.066;2023-04-25T14:46:13;4.03;;;1.40;;
24729;SDS011;12832;52.392;13.066;2023-04-25T14:48:39;1.67;;;0.95;;
24729;SDS011;12832;52.392;13.066;2023-04-25T14:51:06;2.97;;;1.40;;
24729;SDS011;12832;52.392;13.066;2023-04-25T14:53:32;2.30;;;0.90;;